EDRY weather

Speyer Airfield
Speyer, Rhineland-Palatinate, Germany

Public forecast

Using degrees Celsius for public forecast. Weather courtesy of forecast.io.

Closest aviation weather report (METAR) to Speyer Airfield

Report is more than 2 hours old.

Closest report is Mannheim-City Airport, 10.4 nm (19.3 km) NNE. Retrieved 2020/02/17 19:50 UTC (4 hours ago):

EDFM 171950Z 21005KT 170V270 9999 FEW031 BKN120 09/05 Q1020

Closest aviation forecast (TAF) to Speyer Airfield

Forecast is more than 12 hours old.

Closest forecast is Mannheim-City Airport, 10.4 nm (19.3 km) NNE. Retrieved 2012/03/06 06:30 UTC (8 years ago):

TAF EDFM 060519Z 0606/0621 15004KT 9999 FEW040